sensor_id;sensor_type;location;lat;lon;timestamp;P1;durP1;ratioP1;P2;durP2;ratioP2
68653;SDS011;55636;51.108;13.622;2023-05-07T00:00:30;12.40;;;10.73;;
68653;SDS011;55636;51.108;13.622;2023-05-07T00:01:33;14.20;;;11.67;;
68653;SDS011;55636;51.108;13.622;2023-05-07T00:02:35;11.30;;;10.07;;
68653;SDS011;55636;51.108;13.622;2023-05-07T00:03:38;12.60;;;11.23;;
68653;SDS011;55636;51.108;13.622;2023-05-07T00:04:41;14.00;;;11.10;;
68653;SDS011;55636;51.108;13.622;2023-05-07T00:05:43;13.97;;;11.30;;
68653;SDS011;55636;51.108;13.622;2023-05-07T00:06:46;11.93;;;10.67;;
68653;SDS011;55636;51.108;13.622;2023-05-07T00:07:48;12.53;;;10.87;;
68653;SDS011;55636;51.108;13.622;2023-05-07T00:08:50;12.90;;;11.37;;
68653;SDS011;55636;51.108;13.622;2023-05-07T00:09:53;13.63;;;11.90;;
68653;SDS011;55636;51.108;13.622;2023-05-07T00:10:55;13.37;;;11.37;;
68653;SDS011;55636;51.108;13.622;2023-05-07T00:11:57;13.50;;;10.30;;
68653;SDS011;55636;51.108;13.622;2023-05-07T00:13:00;13.53;;;11.20;;
68653;SDS011;55636;51.108;13.622;2023-05-07T00:14:02;13.27;;;11.23;;
68653;SDS011;55636;51.108;13.622;2023-05-07T00:15:05;13.23;;;10.83;;
68653;SDS011;55636;51.108;13.622;2023-05-07T00:16:08;12.33;;;10.77;;
68653;SDS011;55636;51.108;13.622;2023-05-07T00:17:11;14.70;;;11.13;;
68653;SDS011;55636;51.108;13.622;2023-05-07T00:18:13;12.67;;;10.67;;
68653;SDS011;55636;51.108;13.622;2023-05-07T00:19:15;12.77;;;10.33;;
68653;SDS011;55636;51.108;13.622;2023-05-07T00:20:18;12.70;;;10.27;;
68653;SDS011;55636;51.108;13.622;2023-05-07T00:21:20;14.07;;;11.00;;
68653;SDS011;55636;51.108;13.622;2023-05-07T00:22:23;12.70;;;11.07;;
68653;SDS011;55636;51.108;13.622;2023-05-07T00:23:25;13.00;;;10.30;;
68653;SDS011;55636;51.108;13.622;2023-05-07T00:24:28;14.67;;;10.93;;
68653;SDS011;55636;51.108;13.622;2023-05-07T00:25:30;11.43;;;10.23;;
68653;SDS011;55636;51.108;13.622;2023-05-07T00:26:32;13.43;;;10.73;;
68653;SDS011;55636;51.108;13.622;2023-05-07T00:27:35;13.43;;;10.80;;
68653;SDS011;55636;51.108;13.622;2023-05-07T00:28:37;12.27;;;10.40;;
68653;SDS011;55636;51.108;13.622;2023-05-07T00:29:40;12.50;;;10.77;;
68653;SDS011;55636;51.108;13.622;2023-05-07T00:30:42;12.20;;;10.70;;
68653;SDS011;55636;51.108;13.622;2023-05-07T00:31:44;11.90;;;10.67;;
68653;SDS011;55636;51.108;13.622;2023-05-07T00:32:47;12.83;;;10.90;;
68653;SDS011;55636;51.108;13.622;2023-05-07T00:33:51;12.80;;;11.03;;
68653;SDS011;55636;51.108;13.622;2023-05-07T00:34:53;12.83;;;11.17;;
68653;SDS011;55636;51.108;13.622;2023-05-07T00:35:56;11.77;;;10.43;;
68653;SDS011;55636;51.108;13.622;2023-05-07T00:36:58;12.17;;;10.40;;
68653;SDS011;55636;51.108;13.622;2023-05-07T00:38:00;13.70;;;10.87;;
68653;SDS011;55636;51.108;13.622;2023-05-07T00:39:02;13.73;;;10.23;;
68653;SDS011;55636;51.108;13.622;2023-05-07T00:40:06;12.03;;;10.73;;
68653;SDS011;55636;51.108;13.622;2023-05-07T00:41:10;12.23;;;10.93;;
68653;SDS011;55636;51.108;13.622;2023-05-07T00:42:12;12.37;;;11.07;;
68653;SDS011;55636;51.108;13.622;2023-05-07T00:43:15;14.20;;;12.10;;
68653;SDS011;55636;51.108;13.622;2023-05-07T00:44:17;16.97;;;12.13;;
68653;SDS011;55636;51.108;13.622;2023-05-07T00:45:21;14.67;;;12.13;;
68653;SDS011;55636;51.108;13.622;2023-05-07T00:46:23;14.20;;;11.77;;
68653;SDS011;55636;51.108;13.622;2023-05-07T00:47:26;14.30;;;12.13;;
68653;SDS011;55636;51.108;13.622;2023-05-07T00:48:29;14.83;;;12.23;;
68653;SDS011;55636;51.108;13.622;2023-05-07T00:49:39;14.83;;;12.63;;
68653;SDS011;55636;51.108;13.622;2023-05-07T00:50:44;15.30;;;12.83;;
68653;SDS011;55636;51.108;13.622;2023-05-07T00:51:47;14.00;;;12.03;;
68653;SDS011;55636;51.108;13.622;2023-05-07T00:52:50;13.77;;;12.07;;
68653;SDS011;55636;51.108;13.622;2023-05-07T00:53:53;13.73;;;11.87;;
68653;SDS011;55636;51.108;13.622;2023-05-07T00:54:55;14.70;;;11.80;;
68653;SDS011;55636;51.108;13.622;2023-05-07T00:55:58;15.07;;;12.80;;
68653;SDS011;55636;51.108;13.622;2023-05-07T00:57:02;14.63;;;12.53;;
68653;SDS011;55636;51.108;13.622;2023-05-07T00:58:05;15.67;;;13.00;;
68653;SDS011;55636;51.108;13.622;2023-05-07T00:59:08;15.60;;;12.93;;
68653;SDS011;55636;51.108;13.622;2023-05-07T01:00:10;13.93;;;12.37;;
68653;SDS011;55636;51.108;13.622;2023-05-07T01:01:15;16.40;;;13.20;;
68653;SDS011;55636;51.108;13.622;2023-05-07T01:02:20;15.60;;;12.80;;
68653;SDS011;55636;51.108;13.622;2023-05-07T01:03:23;13.70;;;12.20;;
68653;SDS011;55636;51.108;13.622;2023-05-07T01:04:26;14.17;;;12.67;;
68653;SDS011;55636;51.108;13.622;2023-05-07T01:05:29;14.83;;;12.50;;
68653;SDS011;55636;51.108;13.622;2023-05-07T01:06:33;15.30;;;13.23;;
68653;SDS011;55636;51.108;13.622;2023-05-07T01:07:36;13.87;;;12.27;;
68653;SDS011;55636;51.108;13.622;2023-05-07T01:08:40;15.67;;;13.17;;
68653;SDS011;55636;51.108;13.622;2023-05-07T01:09:43;14.57;;;12.43;;
68653;SDS011;55636;51.108;13.622;2023-05-07T01:10:46;13.50;;;12.10;;
68653;SDS011;55636;51.108;13.622;2023-05-07T01:11:49;16.10;;;12.87;;
68653;SDS011;55636;51.108;13.622;2023-05-07T01:12:53;16.17;;;12.93;;
68653;SDS011;55636;51.108;13.622;2023-05-07T01:13:56;15.33;;;12.83;;
68653;SDS011;55636;51.108;13.622;2023-05-07T01:15:01;14.70;;;12.10;;
68653;SDS011;55636;51.108;13.622;2023-05-07T01:16:04;14.77;;;12.13;;
68653;SDS011;55636;51.108;13.622;2023-05-07T01:17:07;13.07;;;11.50;;
68653;SDS011;55636;51.108;13.622;2023-05-07T01:18:10;14.33;;;12.70;;
68653;SDS011;55636;51.108;13.622;2023-05-07T01:19:12;13.10;;;11.80;;
68653;SDS011;55636;51.108;13.622;2023-05-07T01:20:19;14.33;;;12.07;;
68653;SDS011;55636;51.108;13.622;2023-05-07T01:21:25;12.90;;;11.57;;
68653;SDS011;55636;51.108;13.622;2023-05-07T01:22:35;14.57;;;12.20;;
68653;SDS011;55636;51.108;13.622;2023-05-07T01:23:39;14.90;;;12.17;;
68653;SDS011;55636;51.108;13.622;2023-05-07T01:24:43;13.37;;;11.97;;
68653;SDS011;55636;51.108;13.622;2023-05-07T01:25:53;13.97;;;11.83;;
68653;SDS011;55636;51.108;13.622;2023-05-07T01:26:58;13.20;;;11.80;;
68653;SDS011;55636;51.108;13.622;2023-05-07T01:28:00;13.30;;;11.90;;
68653;SDS011;55636;51.108;13.622;2023-05-07T01:29:06;13.40;;;12.00;;
68653;SDS011;55636;51.108;13.622;2023-05-07T01:30:09;13.10;;;11.57;;
68653;SDS011;55636;51.108;13.622;2023-05-07T01:31:13;13.27;;;11.87;;
68653;SDS011;55636;51.108;13.622;2023-05-07T01:32:16;13.87;;;11.90;;
68653;SDS011;55636;51.108;13.622;2023-05-07T01:33:23;13.00;;;11.40;;
68653;SDS011;55636;51.108;13.622;2023-05-07T01:34:27;14.63;;;11.43;;
68653;SDS011;55636;51.108;13.622;2023-05-07T01:35:33;13.30;;;11.50;;
68653;SDS011;55636;51.108;13.622;2023-05-07T01:36:39;12.70;;;11.40;;
68653;SDS011;55636;51.108;13.622;2023-05-07T01:37:44;12.17;;;10.87;;
68653;SDS011;55636;51.108;13.622;2023-05-07T01:38:49;13.57;;;11.90;;
68653;SDS011;55636;51.108;13.622;2023-05-07T01:39:52;12.43;;;11.13;;
68653;SDS011;55636;51.108;13.622;2023-05-07T01:40:56;13.20;;;11.80;;
68653;SDS011;55636;51.108;13.622;2023-05-07T01:41:59;12.63;;;11.33;;
68653;SDS011;55636;51.108;13.622;2023-05-07T01:43:02;12.43;;;11.13;;
68653;SDS011;55636;51.108;13.622;2023-05-07T01:44:07;13.23;;;11.83;;
68653;SDS011;55636;51.108;13.622;2023-05-07T01:45:10;12.40;;;11.10;;
68653;SDS011;55636;51.108;13.622;2023-05-07T01:46:13;12.93;;;11.50;;
68653;SDS011;55636;51.108;13.622;2023-05-07T01:47:17;12.00;;;10.80;;
68653;SDS011;55636;51.108;13.622;2023-05-07T01:48:20;12.40;;;11.10;;
68653;SDS011;55636;51.108;13.622;2023-05-07T01:49:22;12.33;;;11.10;;
68653;SDS011;55636;51.108;13.622;2023-05-07T01:50:26;13.23;;;11.33;;
68653;SDS011;55636;51.108;13.622;2023-05-07T01:51:29;11.67;;;10.33;;
68653;SDS011;55636;51.108;13.622;2023-05-07T01:52:32;12.77;;;11.47;;
68653;SDS011;55636;51.108;13.622;2023-05-07T01:53:36;12.67;;;11.23;;
68653;SDS011;55636;51.108;13.622;2023-05-07T01:54:39;12.13;;;10.83;;
68653;SDS011;55636;51.108;13.622;2023-05-07T01:55:41;13.30;;;11.20;;
68653;SDS011;55636;51.108;13.622;2023-05-07T01:56:44;12.07;;;10.80;;
68653;SDS011;55636;51.108;13.622;2023-05-07T01:57:46;13.20;;;11.30;;
68653;SDS011;55636;51.108;13.622;2023-05-07T01:58:49;13.47;;;11.10;;
68653;SDS011;55636;51.108;13.622;2023-05-07T01:59:53;12.07;;;10.77;;
68653;SDS011;55636;51.108;13.622;2023-05-07T02:00:55;12.17;;;10.80;;
68653;SDS011;55636;51.108;13.622;2023-05-07T02:01:57;12.17;;;10.57;;
68653;SDS011;55636;51.108;13.622;2023-05-07T02:03:00;12.83;;;11.10;;
68653;SDS011;55636;51.108;13.622;2023-05-07T02:04:16;12.03;;;10.83;;
68653;SDS011;55636;51.108;13.622;2023-05-07T02:05:19;12.67;;;11.37;;
68653;SDS011;55636;51.108;13.622;2023-05-07T02:06:27;11.97;;;10.77;;
68653;SDS011;55636;51.108;13.622;2023-05-07T02:07:35;12.10;;;10.77;;
68653;SDS011;55636;51.108;13.622;2023-05-07T02:08:37;12.67;;;11.37;;
68653;SDS011;55636;51.108;13.622;2023-05-07T02:09:40;12.23;;;10.97;;
68653;SDS011;55636;51.108;13.622;2023-05-07T02:10:42;12.30;;;11.00;;
68653;SDS011;55636;51.108;13.622;2023-05-07T02:11:45;12.43;;;11.07;;
68653;SDS011;55636;51.108;13.622;2023-05-07T02:12:47;12.20;;;10.90;;
68653;SDS011;55636;51.108;13.622;2023-05-07T02:13:50;12.50;;;11.20;;
68653;SDS011;55636;51.108;13.622;2023-05-07T02:14:52;11.83;;;10.33;;
68653;SDS011;55636;51.108;13.622;2023-05-07T02:15:56;12.17;;;10.60;;
68653;SDS011;55636;51.108;13.622;2023-05-07T02:16:59;12.17;;;10.87;;
68653;SDS011;55636;51.108;13.622;2023-05-07T02:18:03;12.53;;;11.23;;
68653;SDS011;55636;51.108;13.622;2023-05-07T02:19:09;12.37;;;11.10;;
68653;SDS011;55636;51.108;13.622;2023-05-07T02:20:12;11.97;;;10.63;;
68653;SDS011;55636;51.108;13.622;2023-05-07T02:21:16;12.67;;;11.23;;
68653;SDS011;55636;51.108;13.622;2023-05-07T02:22:18;11.83;;;10.63;;
68653;SDS011;55636;51.108;13.622;2023-05-07T02:23:21;13.23;;;11.53;;
68653;SDS011;55636;51.108;13.622;2023-05-07T02:24:23;11.63;;;10.40;;
68653;SDS011;55636;51.108;13.622;2023-05-07T02:25:26;12.73;;;11.30;;
68653;SDS011;55636;51.108;13.622;2023-05-07T02:26:28;12.00;;;10.63;;
68653;SDS011;55636;51.108;13.622;2023-05-07T02:27:31;12.03;;;10.83;;
68653;SDS011;55636;51.108;13.622;2023-05-07T02:28:33;12.27;;;10.70;;
68653;SDS011;55636;51.108;13.622;2023-05-07T02:29:39;13.07;;;11.00;;
68653;SDS011;55636;51.108;13.622;2023-05-07T02:30:42;12.70;;;11.40;;
68653;SDS011;55636;51.108;13.622;2023-05-07T02:31:45;13.80;;;11.40;;
68653;SDS011;55636;51.108;13.622;2023-05-07T02:32:48;11.60;;;10.40;;
68653;SDS011;55636;51.108;13.622;2023-05-07T02:33:50;14.07;;;11.70;;
68653;SDS011;55636;51.108;13.622;2023-05-07T02:34:53;12.03;;;10.53;;
68653;SDS011;55636;51.108;13.622;2023-05-07T02:35:55;12.13;;;10.83;;
68653;SDS011;55636;51.108;13.622;2023-05-07T02:36:58;12.53;;;10.93;;
68653;SDS011;55636;51.108;13.622;2023-05-07T02:38:01;13.83;;;11.60;;
68653;SDS011;55636;51.108;13.622;2023-05-07T02:39:03;13.97;;;11.13;;
68653;SDS011;55636;51.108;13.622;2023-05-07T02:40:06;12.80;;;11.00;;
68653;SDS011;55636;51.108;13.622;2023-05-07T02:41:09;12.33;;;11.07;;
68653;SDS011;55636;51.108;13.622;2023-05-07T02:42:11;11.87;;;10.60;;
68653;SDS011;55636;51.108;13.622;2023-05-07T02:43:13;11.93;;;10.63;;
68653;SDS011;55636;51.108;13.622;2023-05-07T02:44:19;11.60;;;10.23;;
68653;SDS011;55636;51.108;13.622;2023-05-07T02:45:24;14.27;;;10.93;;
68653;SDS011;55636;51.108;13.622;2023-05-07T02:46:29;11.77;;;10.47;;
68653;SDS011;55636;51.108;13.622;2023-05-07T02:47:36;13.60;;;11.10;;
68653;SDS011;55636;51.108;13.622;2023-05-07T02:48:39;11.77;;;10.30;;
68653;SDS011;55636;51.108;13.622;2023-05-07T02:49:42;13.80;;;11.20;;
68653;SDS011;55636;51.108;13.622;2023-05-07T02:50:44;12.30;;;10.57;;
68653;SDS011;55636;51.108;13.622;2023-05-07T02:51:48;12.17;;;10.87;;
68653;SDS011;55636;51.108;13.622;2023-05-07T02:52:55;11.93;;;10.73;;
68653;SDS011;55636;51.108;13.622;2023-05-07T02:53:57;13.60;;;11.37;;
68653;SDS011;55636;51.108;13.622;2023-05-07T02:55:00;13.53;;;11.90;;
68653;SDS011;55636;51.108;13.622;2023-05-07T02:56:02;12.50;;;11.10;;
68653;SDS011;55636;51.108;13.622;2023-05-07T02:57:07;11.97;;;10.53;;
68653;SDS011;55636;51.108;13.622;2023-05-07T02:58:10;12.40;;;11.10;;
68653;SDS011;55636;51.108;13.622;2023-05-07T02:59:14;12.73;;;11.00;;
68653;SDS011;55636;51.108;13.622;2023-05-07T03:00:17;12.60;;;11.30;;
68653;SDS011;55636;51.108;13.622;2023-05-07T03:01:28;12.10;;;10.80;;
68653;SDS011;55636;51.108;13.622;2023-05-07T03:02:37;13.03;;;11.07;;
68653;SDS011;55636;51.108;13.622;2023-05-07T03:03:40;12.00;;;10.67;;
68653;SDS011;55636;51.108;13.622;2023-05-07T03:04:42;11.97;;;10.63;;
68653;SDS011;55636;51.108;13.622;2023-05-07T03:05:45;12.20;;;10.87;;
68653;SDS011;55636;51.108;13.622;2023-05-07T03:06:47;11.70;;;10.47;;
68653;SDS011;55636;51.108;13.622;2023-05-07T03:07:50;12.83;;;10.97;;
68653;SDS011;55636;51.108;13.622;2023-05-07T03:08:53;11.87;;;10.67;;
68653;SDS011;55636;51.108;13.622;2023-05-07T03:09:55;11.50;;;10.33;;
68653;SDS011;55636;51.108;13.622;2023-05-07T03:10:57;13.63;;;10.67;;
68653;SDS011;55636;51.108;13.622;2023-05-07T03:12:00;11.80;;;10.47;;
68653;SDS011;55636;51.108;13.622;2023-05-07T03:13:04;11.70;;;10.50;;
68653;SDS011;55636;51.108;13.622;2023-05-07T03:14:07;11.90;;;10.60;;
68653;SDS011;55636;51.108;13.622;2023-05-07T03:15:09;12.00;;;10.43;;
68653;SDS011;55636;51.108;13.622;2023-05-07T03:16:13;12.80;;;10.90;;
68653;SDS011;55636;51.108;13.622;2023-05-07T03:17:15;11.60;;;10.17;;
68653;SDS011;55636;51.108;13.622;2023-05-07T03:18:18;13.97;;;10.97;;
68653;SDS011;55636;51.108;13.622;2023-05-07T03:19:20;11.80;;;10.60;;
68653;SDS011;55636;51.108;13.622;2023-05-07T03:20:23;11.83;;;10.40;;
68653;SDS011;55636;51.108;13.622;2023-05-07T03:21:25;13.73;;;11.07;;
68653;SDS011;55636;51.108;13.622;2023-05-07T03:22:28;11.90;;;10.40;;
68653;SDS011;55636;51.108;13.622;2023-05-07T03:23:31;12.50;;;11.20;;
68653;SDS011;55636;51.108;13.622;2023-05-07T03:24:33;12.43;;;10.73;;
68653;SDS011;55636;51.108;13.622;2023-05-07T03:25:36;11.43;;;10.20;;
68653;SDS011;55636;51.108;13.622;2023-05-07T03:26:39;11.80;;;10.20;;
68653;SDS011;55636;51.108;13.622;2023-05-07T03:27:41;13.10;;;10.67;;
68653;SDS011;55636;51.108;13.622;2023-05-07T03:28:44;12.50;;;10.50;;
68653;SDS011;55636;51.108;13.622;2023-05-07T03:29:48;12.53;;;10.73;;
68653;SDS011;55636;51.108;13.622;2023-05-07T03:30:50;11.63;;;10.43;;
68653;SDS011;55636;51.108;13.622;2023-05-07T03:31:53;11.30;;;9.90;;
68653;SDS011;55636;51.108;13.622;2023-05-07T03:32:55;13.43;;;10.93;;
68653;SDS011;55636;51.108;13.622;2023-05-07T03:33:58;11.47;;;10.03;;
68653;SDS011;55636;51.108;13.622;2023-05-07T03:35:01;11.20;;;10.00;;
68653;SDS011;55636;51.108;13.622;2023-05-07T03:36:03;11.60;;;9.93;;
68653;SDS011;55636;51.108;13.622;2023-05-07T03:37:06;11.90;;;10.37;;
68653;SDS011;55636;51.108;13.622;2023-05-07T03:38:09;11.73;;;10.20;;
68653;SDS011;55636;51.108;13.622;2023-05-07T03:39:12;13.33;;;10.53;;
68653;SDS011;55636;51.108;13.622;2023-05-07T03:40:15;12.90;;;10.13;;
68653;SDS011;55636;51.108;13.622;2023-05-07T03:41:22;11.27;;;9.77;;
68653;SDS011;55636;51.108;13.622;2023-05-07T03:42:25;11.50;;;10.30;;
68653;SDS011;55636;51.108;13.622;2023-05-07T03:43:27;12.83;;;10.80;;
68653;SDS011;55636;51.108;13.622;2023-05-07T03:44:37;11.20;;;9.83;;
68653;SDS011;55636;51.108;13.622;2023-05-07T03:45:39;13.43;;;10.80;;
68653;SDS011;55636;51.108;13.622;2023-05-07T03:46:49;12.63;;;10.67;;
68653;SDS011;55636;51.108;13.622;2023-05-07T03:47:51;14.07;;;10.63;;
68653;SDS011;55636;51.108;13.622;2023-05-07T03:48:55;11.93;;;10.60;;
68653;SDS011;55636;51.108;13.622;2023-05-07T03:49:58;12.73;;;10.37;;
68653;SDS011;55636;51.108;13.622;2023-05-07T03:51:01;13.03;;;10.93;;
68653;SDS011;55636;51.108;13.622;2023-05-07T03:52:08;12.70;;;10.20;;
68653;SDS011;55636;51.108;13.622;2023-05-07T03:53:10;12.37;;;10.40;;
68653;SDS011;55636;51.108;13.622;2023-05-07T03:54:14;11.67;;;10.17;;
68653;SDS011;55636;51.108;13.622;2023-05-07T03:55:19;12.87;;;10.67;;
68653;SDS011;55636;51.108;13.622;2023-05-07T03:56:26;11.57;;;10.13;;
68653;SDS011;55636;51.108;13.622;2023-05-07T03:57:31;12.03;;;10.37;;
68653;SDS011;55636;51.108;13.622;2023-05-07T03:58:34;12.43;;;10.53;;
68653;SDS011;55636;51.108;13.622;2023-05-07T03:59:41;12.70;;;10.40;;
68653;SDS011;55636;51.108;13.622;2023-05-07T04:00:44;11.53;;;10.33;;
68653;SDS011;55636;51.108;13.622;2023-05-07T04:01:54;12.33;;;10.53;;
68653;SDS011;55636;51.108;13.622;2023-05-07T04:02:58;12.00;;;10.40;;
68653;SDS011;55636;51.108;13.622;2023-05-07T04:04:04;12.47;;;10.83;;
68653;SDS011;55636;51.108;13.622;2023-05-07T04:05:10;12.17;;;10.27;;
68653;SDS011;55636;51.108;13.622;2023-05-07T04:06:15;13.03;;;10.50;;
68653;SDS011;55636;51.108;13.622;2023-05-07T04:07:21;11.93;;;10.27;;
68653;SDS011;55636;51.108;13.622;2023-05-07T04:08:25;12.00;;;10.10;;
68653;SDS011;55636;51.108;13.622;2023-05-07T04:09:29;12.57;;;9.97;;
68653;SDS011;55636;51.108;13.622;2023-05-07T04:10:32;13.13;;;10.93;;
68653;SDS011;55636;51.108;13.622;2023-05-07T04:11:38;12.10;;;10.37;;
68653;SDS011;55636;51.108;13.622;2023-05-07T04:12:44;14.23;;;10.60;;
68653;SDS011;55636;51.108;13.622;2023-05-07T04:13:51;13.67;;;11.13;;
68653;SDS011;55636;51.108;13.622;2023-05-07T04:14:56;12.80;;;11.00;;
68653;SDS011;55636;51.108;13.622;2023-05-07T04:16:00;12.67;;;11.10;;
68653;SDS011;55636;51.108;13.622;2023-05-07T04:17:03;13.80;;;11.27;;
68653;SDS011;55636;51.108;13.622;2023-05-07T04:18:05;14.40;;;11.50;;
68653;SDS011;55636;51.108;13.622;2023-05-07T04:19:09;12.97;;;11.20;;
68653;SDS011;55636;51.108;13.622;2023-05-07T04:20:14;14.30;;;11.07;;
68653;SDS011;55636;51.108;13.622;2023-05-07T04:21:20;13.60;;;10.33;;
68653;SDS011;55636;51.108;13.622;2023-05-07T04:22:25;11.80;;;10.50;;
68653;SDS011;55636;51.108;13.622;2023-05-07T04:23:27;13.10;;;10.80;;
68653;SDS011;55636;51.108;13.622;2023-05-07T04:24:32;13.53;;;11.03;;
68653;SDS011;55636;51.108;13.622;2023-05-07T04:25:38;12.73;;;10.70;;
68653;SDS011;55636;51.108;13.622;2023-05-07T04:26:46;12.23;;;10.37;;
68653;SDS011;55636;51.108;13.622;2023-05-07T04:27:50;12.73;;;11.03;;
68653;SDS011;55636;51.108;13.622;2023-05-07T04:28:52;13.13;;;11.10;;
68653;SDS011;55636;51.108;13.622;2023-05-07T04:29:54;13.03;;;10.80;;
68653;SDS011;55636;51.108;13.622;2023-05-07T04:30:57;14.13;;;10.90;;
68653;SDS011;55636;51.108;13.622;2023-05-07T04:32:00;14.77;;;11.30;;
68653;SDS011;55636;51.108;13.622;2023-05-07T04:33:03;13.17;;;10.73;;
68653;SDS011;55636;51.108;13.622;2023-05-07T04:34:06;12.43;;;10.90;;
68653;SDS011;55636;51.108;13.622;2023-05-07T04:35:09;15.80;;;12.10;;
68653;SDS011;55636;51.108;13.622;2023-05-07T04:36:12;12.77;;;10.80;;
68653;SDS011;55636;51.108;13.622;2023-05-07T04:37:22;13.30;;;10.87;;
68653;SDS011;55636;51.108;13.622;2023-05-07T04:38:25;13.37;;;10.73;;
68653;SDS011;55636;51.108;13.622;2023-05-07T04:39:28;12.80;;;10.30;;
68653;SDS011;55636;51.108;13.622;2023-05-07T04:40:31;11.23;;;10.03;;
68653;SDS011;55636;51.108;13.622;2023-05-07T04:41:35;12.97;;;10.50;;
68653;SDS011;55636;51.108;13.622;2023-05-07T04:42:39;12.10;;;10.30;;
68653;SDS011;55636;51.108;13.622;2023-05-07T04:43:42;10.87;;;9.77;;
68653;SDS011;55636;51.108;13.622;2023-05-07T04:44:46;13.73;;;11.13;;
68653;SDS011;55636;51.108;13.622;2023-05-07T04:45:51;13.13;;;10.73;;
68653;SDS011;55636;51.108;13.622;2023-05-07T04:46:56;13.63;;;11.07;;
68653;SDS011;55636;51.108;13.622;2023-05-07T04:48:00;14.90;;;11.23;;
68653;SDS011;55636;51.108;13.622;2023-05-07T04:49:03;12.30;;;10.70;;
68653;SDS011;55636;51.108;13.622;2023-05-07T04:50:06;13.73;;;10.60;;
68653;SDS011;55636;51.108;13.622;2023-05-07T04:51:10;15.50;;;12.00;;
68653;SDS011;55636;51.108;13.622;2023-05-07T04:52:13;15.23;;;12.10;;
68653;SDS011;55636;51.108;13.622;2023-05-07T04:53:15;15.10;;;11.90;;
68653;SDS011;55636;51.108;13.622;2023-05-07T04:54:19;14.93;;;10.87;;
68653;SDS011;55636;51.108;13.622;2023-05-07T04:55:22;16.27;;;12.40;;
68653;SDS011;55636;51.108;13.622;2023-05-07T04:56:27;14.50;;;11.33;;
68653;SDS011;55636;51.108;13.622;2023-05-07T04:57:29;13.50;;;11.23;;
68653;SDS011;55636;51.108;13.622;2023-05-07T04:58:32;14.77;;;11.70;;
68653;SDS011;55636;51.108;13.622;2023-05-07T04:59:35;15.83;;;11.77;;
68653;SDS011;55636;51.108;13.622;2023-05-07T05:00:37;13.63;;;11.27;;
68653;SDS011;55636;51.108;13.622;2023-05-07T05:01:41;14.37;;;11.50;;
68653;SDS011;55636;51.108;13.622;2023-05-07T05:02:44;13.27;;;11.30;;
68653;SDS011;55636;51.108;13.622;2023-05-07T05:03:49;14.67;;;11.63;;
68653;SDS011;55636;51.108;13.622;2023-05-07T05:04:53;15.87;;;11.87;;
68653;SDS011;55636;51.108;13.622;2023-05-07T05:05:57;14.93;;;11.50;;
68653;SDS011;55636;51.108;13.622;2023-05-07T05:07:05;14.67;;;11.60;;
68653;SDS011;55636;51.108;13.622;2023-05-07T05:08:07;13.13;;;10.70;;
68653;SDS011;55636;51.108;13.622;2023-05-07T05:09:12;14.63;;;11.13;;
68653;SDS011;55636;51.108;13.622;2023-05-07T05:10:16;13.77;;;11.30;;
68653;SDS011;55636;51.108;13.622;2023-05-07T05:11:20;13.60;;;10.97;;
68653;SDS011;55636;51.108;13.622;2023-05-07T05:12:23;13.60;;;10.97;;
68653;SDS011;55636;51.108;13.622;2023-05-07T05:13:25;12.17;;;10.23;;
68653;SDS011;55636;51.108;13.622;2023-05-07T05:14:29;12.70;;;10.07;;
68653;SDS011;55636;51.108;13.622;2023-05-07T05:15:31;12.57;;;9.70;;
68653;SDS011;55636;51.108;13.622;2023-05-07T05:16:35;13.70;;;10.80;;
68653;SDS011;55636;51.108;13.622;2023-05-07T05:17:38;12.40;;;9.83;;
68653;SDS011;55636;51.108;13.622;2023-05-07T05:18:41;12.23;;;9.43;;
68653;SDS011;55636;51.108;13.622;2023-05-07T05:19:46;12.80;;;10.47;;
68653;SDS011;55636;51.108;13.622;2023-05-07T05:20:48;13.10;;;10.87;;
68653;SDS011;55636;51.108;13.622;2023-05-07T05:21:50;12.07;;;10.13;;
68653;SDS011;55636;51.108;13.622;2023-05-07T05:22:53;12.87;;;10.33;;
68653;SDS011;55636;51.108;13.622;2023-05-07T05:23:55;13.50;;;9.97;;
68653;SDS011;55636;51.108;13.622;2023-05-07T05:24:59;11.33;;;9.87;;
68653;SDS011;55636;51.108;13.622;2023-05-07T05:26:02;12.33;;;10.10;;
68653;SDS011;55636;51.108;13.622;2023-05-07T05:27:07;11.07;;;9.57;;
68653;SDS011;55636;51.108;13.622;2023-05-07T05:28:09;10.87;;;9.40;;
68653;SDS011;55636;51.108;13.622;2023-05-07T05:29:11;10.63;;;9.00;;
68653;SDS011;55636;51.108;13.622;2023-05-07T05:30:16;10.77;;;9.07;;
68653;SDS011;55636;51.108;13.622;2023-05-07T05:31:21;10.40;;;9.17;;
68653;SDS011;55636;51.108;13.622;2023-05-07T05:32:24;11.13;;;9.17;;
68653;SDS011;55636;51.108;13.622;2023-05-07T05:33:30;10.63;;;9.50;;
68653;SDS011;55636;51.108;13.622;2023-05-07T05:34:37;11.53;;;9.30;;
68653;SDS011;55636;51.108;13.622;2023-05-07T05:35:41;11.33;;;9.30;;
68653;SDS011;55636;51.108;13.622;2023-05-07T05:36:46;10.67;;;9.27;;
68653;SDS011;55636;51.108;13.622;2023-05-07T05:37:49;10.60;;;9.50;;
68653;SDS011;55636;51.108;13.622;2023-05-07T05:38:54;10.33;;;9.17;;
68653;SDS011;55636;51.108;13.622;2023-05-07T05:40:00;10.57;;;9.47;;
68653;SDS011;55636;51.108;13.622;2023-05-07T05:41:03;11.87;;;9.83;;
68653;SDS011;55636;51.108;13.622;2023-05-07T05:42:06;12.60;;;9.70;;
68653;SDS011;55636;51.108;13.622;2023-05-07T05:43:10;12.40;;;10.27;;
68653;SDS011;55636;51.108;13.622;2023-05-07T05:44:13;12.17;;;10.23;;
68653;SDS011;55636;51.108;13.622;2023-05-07T05:45:17;11.57;;;9.97;;
68653;SDS011;55636;51.108;13.622;2023-05-07T05:46:20;10.50;;;9.40;;
68653;SDS011;55636;51.108;13.622;2023-05-07T05:47:24;11.67;;;9.47;;
68653;SDS011;55636;51.108;13.622;2023-05-07T05:48:30;10.90;;;9.47;;
68653;SDS011;55636;51.108;13.622;2023-05-07T05:49:35;11.50;;;9.43;;
68653;SDS011;55636;51.108;13.622;2023-05-07T05:50:41;10.60;;;9.37;;
68653;SDS011;55636;51.108;13.622;2023-05-07T05:51:46;10.80;;;9.33;;
68653;SDS011;55636;51.108;13.622;2023-05-07T05:52:48;11.07;;;9.70;;
68653;SDS011;55636;51.108;13.622;2023-05-07T05:53:52;11.70;;;9.87;;
68653;SDS011;55636;51.108;13.622;2023-05-07T05:54:55;10.93;;;9.40;;
68653;SDS011;55636;51.108;13.622;2023-05-07T05:55:57;10.17;;;9.10;;
68653;SDS011;55636;51.108;13.622;2023-05-07T05:57:00;12.60;;;10.33;;
68653;SDS011;55636;51.108;13.622;2023-05-07T05:58:06;11.57;;;9.83;;
68653;SDS011;55636;51.108;13.622;2023-05-07T05:59:13;15.00;;;11.10;;
68653;SDS011;55636;51.108;13.622;2023-05-07T06:00:16;10.77;;;9.60;;
68653;SDS011;55636;51.108;13.622;2023-05-07T06:01:21;10.27;;;8.83;;
68653;SDS011;55636;51.108;13.622;2023-05-07T06:02:25;11.80;;;8.67;;
68653;SDS011;55636;51.108;13.622;2023-05-07T06:03:29;10.30;;;8.50;;
68653;SDS011;55636;51.108;13.622;2023-05-07T06:04:34;11.53;;;8.77;;
68653;SDS011;55636;51.108;13.622;2023-05-07T06:05:38;10.40;;;8.60;;
68653;SDS011;55636;51.108;13.622;2023-05-07T06:06:40;12.13;;;9.23;;
68653;SDS011;55636;51.108;13.622;2023-05-07T06:07:42;10.73;;;8.73;;